createdAt,value
2023-03-27T00:00:25.260Z,10.27
2023-03-27T00:01:26.993Z,10.22
2023-03-27T00:02:23.789Z,10.01
2023-03-27T00:03:23.116Z,9.899
2023-03-27T00:04:23.005Z,9.784
2023-03-27T00:05:23.000Z,9.760
2023-03-27T00:06:23.308Z,9.923
2023-03-27T00:07:23.453Z,9.914
2023-03-27T00:08:23.165Z,9.868
2023-03-27T00:09:23.269Z,9.968
2023-03-27T00:10:23.421Z,9.902
2023-03-27T00:11:22.805Z,9.979
2023-03-27T00:12:22.985Z,9.904
2023-03-27T00:13:23.005Z,9.878
2023-03-27T00:14:36.997Z,9.723
2023-03-27T00:16:40.667Z,9.644
2023-03-27T00:17:22.475Z,9.621
2023-03-27T00:18:23.343Z,9.529
2023-03-27T00:19:22.847Z,9.600
2023-03-27T00:20:22.700Z,9.760
2023-03-27T00:21:22.946Z,9.739
2023-03-27T00:22:22.985Z,9.574
2023-03-27T00:23:22.988Z,9.479
2023-03-27T00:24:23.189Z,9.479
2023-03-27T00:25:23.049Z,9.489
2023-03-27T00:26:22.804Z,9.449
2023-03-27T00:27:23.448Z,9.414
2023-03-27T00:28:23.023Z,9.435
2023-03-27T00:29:23.386Z,9.399
2023-03-27T00:30:23.054Z,9.404
2023-03-27T00:31:23.432Z,9.355
2023-03-27T00:32:23.350Z,9.310
2023-03-27T00:33:23.035Z,9.295
2023-03-27T00:34:22.738Z,9.274
2023-03-27T00:35:22.796Z,9.279
2023-03-27T00:36:22.752Z,9.279
2023-03-27T00:37:23.262Z,9.270
2023-03-27T00:39:26.104Z,9.220
2023-03-27T00:40:22.981Z,9.225
2023-03-27T00:41:22.926Z,9.180
2023-03-27T00:42:23.035Z,9.131
2023-03-27T00:43:22.862Z,9.114
2023-03-27T00:44:22.776Z,9.034
2023-03-27T00:45:23.113Z,9.039
2023-03-27T00:46:23.231Z,8.975
2023-03-27T00:47:23.241Z,8.944
2023-03-27T00:48:23.117Z,8.909
2023-03-27T00:49:23.343Z,8.914
2023-03-27T00:50:23.113Z,8.920
2023-03-27T00:51:22.930Z,8.925
2023-03-27T00:52:22.655Z,8.899
2023-03-27T00:53:22.981Z,8.904
2023-03-27T00:54:23.173Z,8.879
2023-03-27T00:55:23.129Z,8.826
2023-03-27T00:56:22.805Z,8.838
2023-03-27T00:57:23.214Z,8.885
2023-03-27T00:58:22.771Z,8.904
2023-03-27T00:59:23.688Z,8.925
2023-03-27T01:00:24.212Z,8.920
2023-03-27T01:01:23.015Z,8.904
2023-03-27T01:02:23.457Z,8.895
2023-03-27T01:03:23.170Z,8.935
2023-03-27T01:04:23.113Z,8.939
2023-03-27T01:05:23.278Z,8.895
2023-03-27T01:06:23.419Z,8.857
2023-03-27T01:07:23.279Z,8.826
2023-03-27T01:08:23.064Z,8.840
2023-03-27T01:09:23.204Z,8.897
2023-03-27T01:10:23.237Z,8.921
2023-03-27T01:11:23.300Z,8.918
2023-03-27T01:12:23.389Z,8.944
2023-03-27T01:13:23.052Z,8.906
2023-03-27T01:14:23.248Z,8.885
2023-03-27T01:15:23.591Z,8.883
2023-03-27T01:16:23.124Z,8.850
2023-03-27T01:17:23.749Z,8.826
2023-03-27T01:18:22.811Z,8.859
2023-03-27T01:19:23.469Z,8.850
2023-03-27T01:20:23.053Z,8.795
2023-03-27T01:21:23.245Z,8.784
2023-03-27T01:22:23.108Z,8.779
2023-03-27T01:23:36.382Z,8.765
2023-03-27T01:24:33.594Z,8.789
2023-03-27T01:25:22.987Z,8.774
2023-03-27T01:26:35.716Z,8.744
2023-03-27T01:27:23.602Z,8.713
2023-03-27T01:28:23.375Z,8.689
2023-03-27T01:29:23.590Z,8.704
2023-03-27T01:30:23.207Z,8.642
2023-03-27T01:31:23.851Z,8.626
2023-03-27T01:32:23.186Z,8.649
2023-03-27T01:33:23.046Z,8.600
2023-03-27T01:34:23.149Z,8.595
2023-03-27T01:35:23.346Z,8.550
2023-03-27T01:36:23.251Z,8.574
2023-03-27T01:37:22.995Z,8.585
2023-03-27T01:38:22.696Z,8.520
2023-03-27T01:39:23.508Z,8.510
2023-03-27T01:40:22.984Z,8.479
2023-03-27T01:41:22.836Z,8.430
2023-03-27T01:42:22.858Z,8.449
2023-03-27T01:43:22.849Z,8.489
2023-03-27T01:44:23.223Z,8.510
2023-03-27T01:45:23.441Z,8.350
2023-03-27T01:46:23.612Z,8.355
2023-03-27T01:47:22.855Z,8.343
2023-03-27T01:48:22.678Z,8.383
2023-03-27T01:49:23.024Z,8.404
2023-03-27T01:50:22.966Z,8.392
2023-03-27T01:51:22.989Z,8.317
2023-03-27T01:52:22.930Z,8.312
2023-03-27T01:53:22.729Z,8.362
2023-03-27T01:54:22.712Z,8.380
2023-03-27T01:55:22.759Z,8.380
2023-03-27T01:56:22.797Z,8.399
2023-03-27T01:57:23.794Z,8.383
2023-03-27T01:58:23.238Z,8.345
2023-03-27T01:59:22.975Z,8.333
2023-03-27T02:00:24.143Z,8.310
2023-03-27T02:01:23.241Z,8.338
2023-03-27T02:02:23.306Z,8.326
2023-03-27T02:03:22.225Z,8.295
2023-03-27T02:04:23.331Z,8.270
2023-03-27T02:05:23.420Z,8.199
2023-03-27T02:06:23.597Z,8.182
2023-03-27T02:07:22.832Z,8.154
2023-03-27T02:08:23.449Z,8.114
2023-03-27T02:09:23.082Z,8.064
2023-03-27T02:10:23.251Z,8.149
2023-03-27T02:11:22.907Z,8.137
2023-03-27T02:12:23.082Z,8.149
2023-03-27T02:13:23.152Z,8.149
2023-03-27T02:14:23.315Z,8.133
2023-03-27T02:15:25.535Z,8.090
2023-03-27T02:16:22.514Z,8.114
2023-03-27T02:17:23.655Z,8.126
2023-03-27T02:18:22.674Z,8.131
2023-03-27T02:19:23.192Z,8.125
2023-03-27T02:20:23.588Z,8.120
2023-03-27T02:21:23.397Z,8.142
2023-03-27T02:22:37.701Z,8.114
2023-03-27T02:23:22.863Z,8.083
2023-03-27T02:24:23.060Z,8.060
2023-03-27T02:25:22.698Z,8.060
2023-03-27T02:26:23.024Z,8.031
2023-03-27T02:27:31.442Z,8.060
2023-03-27T02:28:22.487Z,8.016
2023-03-27T02:29:23.442Z,8.031
2023-03-27T02:30:23.653Z,8.027
2023-03-27T02:31:31.508Z,8.039
2023-03-27T02:32:22.941Z,8.060
2023-03-27T02:33:23.007Z,8.045
2023-03-27T02:34:23.470Z,8.010
2023-03-27T02:35:23.321Z,8.045
2023-03-27T02:36:23.202Z,8.029
2023-03-27T02:37:23.292Z,8.015
2023-03-27T02:38:22.952Z,7.994
2023-03-27T02:39:23.561Z,8.010
2023-03-27T02:40:23.604Z,7.989
2023-03-27T02:41:22.707Z,7.949
2023-03-27T02:42:22.344Z,7.914
2023-03-27T02:43:23.261Z,7.940
2023-03-27T02:44:23.548Z,7.954
2023-03-27T02:45:23.376Z,7.940
2023-03-27T02:46:23.139Z,7.949
2023-03-27T02:47:23.721Z,8.015
2023-03-27T02:48:22.936Z,7.974
2023-03-27T02:49:23.322Z,7.965
2023-03-27T02:50:23.282Z,7.974
2023-03-27T02:51:23.612Z,7.994
2023-03-27T02:52:23.646Z,8.005
2023-03-27T02:53:22.624Z,8.015
2023-03-27T02:54:23.484Z,8.005
2023-03-27T02:55:23.126Z,8.020
2023-03-27T02:56:23.010Z,8.020
2023-03-27T02:57:25.118Z,8
2023-03-27T02:58:22.599Z,8.029
2023-03-27T02:59:23.189Z,8.010
2023-03-27T03:00:24.626Z,8.050
2023-03-27T03:01:23.180Z,8.005
2023-03-27T03:02:23.655Z,7.989
2023-03-27T03:03:22.917Z,8.015
2023-03-27T03:04:23.320Z,7.945
2023-03-27T03:05:23.490Z,7.954
2023-03-27T03:06:23.792Z,7.965
2023-03-27T03:07:23.199Z,7.985
2023-03-27T03:08:23.026Z,8
2023-03-27T03:09:23.457Z,7.985
2023-03-27T03:10:23.193Z,7.949
2023-03-27T03:11:23.851Z,7.965
2023-03-27T03:12:23.322Z,7.965
2023-03-27T03:13:22.479Z,7.965
2023-03-27T03:14:22.988Z,8.024
2023-03-27T03:15:23.453Z,8.039
2023-03-27T03:16:23.308Z,8.064
2023-03-27T03:17:24.038Z,8.069
2023-03-27T03:18:23.320Z,8.050
2023-03-27T03:19:23.550Z,8.064
2023-03-27T03:20:23.730Z,8.060
2023-03-27T03:21:23.387Z,8.045
2023-03-27T03:22:23.379Z,8.055
2023-03-27T03:23:23.009Z,8.069
2023-03-27T03:24:23.335Z,8.064
2023-03-27T03:25:23.263Z,8.034
2023-03-27T03:26:23.393Z,8.005
2023-03-27T03:27:23.781Z,8.060
2023-03-27T03:28:23.575Z,8.079
2023-03-27T03:29:23.647Z,8.090
2023-03-27T03:30:22.813Z,8.085
2023-03-27T03:31:23.513Z,8.100
2023-03-27T03:32:23.620Z,8.079
2023-03-27T03:33:23.594Z,8.074
2023-03-27T03:34:23.384Z,8.060
2023-03-27T03:35:23.951Z,8.120
2023-03-27T03:36:23.544Z,8.114
2023-03-27T03:37:23.577Z,8.142
2023-03-27T03:38:23.024Z,8.189
2023-03-27T03:39:23.511Z,8.189
2023-03-27T03:40:23.490Z,8.120
2023-03-27T03:41:23.367Z,8.140
2023-03-27T03:42:24.160Z,8.092
2023-03-27T03:43:23.237Z,8.043
2023-03-27T03:44:23.867Z,8.021
2023-03-27T03:45:23.877Z,8.009
2023-03-27T03:46:23.214Z,8.016
2023-03-27T03:47:23.618Z,8.032
2023-03-27T03:48:23.722Z,8.034
2023-03-27T03:49:23.460Z,8.050
2023-03-27T03:50:23.942Z,8.024
2023-03-27T03:51:24.065Z,8.015
2023-03-27T03:52:23.336Z,7.980
2023-03-27T03:53:23.789Z,7.969
2023-03-27T03:54:22.691Z,8.020
2023-03-27T03:55:23.523Z,8.005
2023-03-27T03:56:23.655Z,7.985
2023-03-27T03:57:23.553Z,7.969
2023-03-27T03:58:34.872Z,7.940
2023-03-27T03:59:23.737Z,7.954
2023-03-27T04:00:24.927Z,7.974
2023-03-27T04:01:23.476Z,7.949
2023-03-27T04:02:23.921Z,7.954
2023-03-27T04:03:23.500Z,7.994
2023-03-27T04:04:23.400Z,7.954
2023-03-27T04:05:23.946Z,7.925
2023-03-27T04:06:23.714Z,7.925
2023-03-27T04:07:23.596Z,7.909
2023-03-27T04:08:23.026Z,7.945
2023-03-27T04:09:23.472Z,7.969
2023-03-27T04:10:24.423Z,7.980
2023-03-27T04:11:23.314Z,7.969
2023-03-27T04:12:23.644Z,7.929
2023-03-27T04:13:23.153Z,7.974
2023-03-27T04:14:24.352Z,7.985
2023-03-27T04:15:23.772Z,8.005
2023-03-27T04:16:23.450Z,7.969
2023-03-27T04:17:23.434Z,7.833
2023-03-27T04:18:23.206Z,7.873
2023-03-27T04:19:23.771Z,7.900
2023-03-27T04:20:23.946Z,7.900
2023-03-27T04:21:23.208Z,7.914
2023-03-27T04:22:23.692Z,7.969
2023-03-27T04:23:23.538Z,7.980
2023-03-27T04:24:23.844Z,7.940
2023-03-27T04:25:24.020Z,7.909
2023-03-27T04:26:23.902Z,7.828
2023-03-27T04:27:23.576Z,7.775
2023-03-27T04:28:23.914Z,7.795
2023-03-27T04:29:23.796Z,7.795
2023-03-27T04:30:24.068Z,7.800
2023-03-27T04:31:24.074Z,7.789
2023-03-27T04:32:24.493Z,7.775
2023-03-27T04:33:23.921Z,7.784
2023-03-27T04:34:23.371Z,7.780
2023-03-27T04:35:24.007Z,7.744
2023-03-27T04:36:23.842Z,7.681
2023-03-27T04:37:24.310Z,7.594
2023-03-27T04:38:28.664Z,7.525
2023-03-27T04:39:24.679Z,7.579
2023-03-27T04:40:28.673Z,7.579
2023-03-27T04:41:23.559Z,7.605
2023-03-27T04:42:23.559Z,7.631
2023-03-27T04:43:23.218Z,7.625
2023-03-27T04:44:24.357Z,7.616
2023-03-27T04:45:23.474Z,7.590
2023-03-27T04:46:23.341Z,7.534
2023-03-27T04:47:23.926Z,7.505
2023-03-27T04:48:23.621Z,7.485
2023-03-27T04:49:23.356Z,7.525
2023-03-27T04:50:31.556Z,7.539
2023-03-27T04:51:23.573Z,7.565
2023-03-27T04:52:31.116Z,7.550
2023-03-27T04:53:23.557Z,7.550
2023-03-27T04:54:24.150Z,7.550
2023-03-27T04:55:23.916Z,7.559
2023-03-27T04:56:24.234Z,7.554
2023-03-27T04:57:23.544Z,7.550
2023-03-27T04:58:23.129Z,7.585
2023-03-27T04:59:23.292Z,7.559
2023-03-27T05:00:25.370Z,7.565
2023-03-27T05:01:23.946Z,7.587
2023-03-27T05:02:38.231Z,7.550
2023-03-27T05:03:24.003Z,7.532
2023-03-27T05:04:23.478Z,7.527
2023-03-27T05:05:23.746Z,7.514
2023-03-27T05:06:23.478Z,7.522
2023-03-27T05:07:23.518Z,7.461
2023-03-27T05:08:23.198Z,7.474
2023-03-27T05:09:23.892Z,7.449
2023-03-27T05:10:23.513Z,7.450
2023-03-27T05:11:23.643Z,7.449
2023-03-27T05:12:23.230Z,7.445
2023-03-27T05:13:23.462Z,7.5
2023-03-27T05:14:23.642Z,7.5
2023-03-27T05:15:23.670Z,7.530
2023-03-27T05:16:23.718Z,7.545
2023-03-27T05:17:23.035Z,7.534
2023-03-27T05:18:23.899Z,7.519
2023-03-27T05:19:24.947Z,7.525
2023-03-27T05:20:23.356Z,7.550
2023-03-27T05:21:23.721Z,7.590
2023-03-27T05:22:23.712Z,7.574
2023-03-27T05:23:23.963Z,7.554
2023-03-27T05:24:45.983Z,7.530
2023-03-27T05:25:22.764Z,7.550
2023-03-27T05:26:23.400Z,7.559
2023-03-27T05:27:23.893Z,7.565
2023-03-27T05:28:23.949Z,7.579
2023-03-27T05:29:23.732Z,7.605
2023-03-27T05:30:24.100Z,7.605
2023-03-27T05:31:23.866Z,7.659
2023-03-27T05:32:23.751Z,7.724
2023-03-27T05:33:23.721Z,7.764
2023-03-27T05:34:23.863Z,7.769
2023-03-27T05:35:23.544Z,7.795
2023-03-27T05:36:23.425Z,7.815
2023-03-27T05:37:24.141Z,7.873
2023-03-27T05:38:23.425Z,7.894
2023-03-27T05:39:23.361Z,7.940
2023-03-27T05:40:23.833Z,7.954
2023-03-27T05:41:24.022Z,7.994
2023-03-27T05:42:23.636Z,8.060
2023-03-27T05:43:23.073Z,8.074
2023-03-27T05:44:23.742Z,8.079
2023-03-27T05:45:23.640Z,8.149
2023-03-27T05:46:23.071Z,8.189
2023-03-27T05:47:24.289Z,8.189
2023-03-27T05:48:23.166Z,8.171
2023-03-27T05:49:23.872Z,8.204
2023-03-27T05:50:23.407Z,8.215
2023-03-27T05:51:24.175Z,8.255
2023-03-27T05:52:28.654Z,8.279
2023-03-27T05:53:27.964Z,8.310
2023-03-27T05:54:23.490Z,8.355
2023-03-27T05:55:26.320Z,8.399
2023-03-27T05:56:23.564Z,8.439
2023-03-27T05:57:23.173Z,8.425
2023-03-27T05:58:23.662Z,8.465
2023-03-27T05:59:23.827Z,8.479
2023-03-27T06:01:27.842Z,8.515
2023-03-27T06:02:24.218Z,8.524
2023-03-27T06:03:23.779Z,8.539
2023-03-27T06:04:24.316Z,8.574
2023-03-27T06:05:23.739Z,8.595
2023-03-27T06:06:24.135Z,8.654
2023-03-27T06:07:24.451Z,8.678
2023-03-27T06:08:23.994Z,8.684
2023-03-27T06:09:23.889Z,8.715
2023-03-27T06:10:23.535Z,8.729
2023-03-27T06:11:24.386Z,8.800
2023-03-27T06:12:24.302Z,8.805
2023-03-27T06:13:23.784Z,8.800
2023-03-27T06:14:23.619Z,8.779
2023-03-27T06:15:23.805Z,8.779
2023-03-27T06:16:23.327Z,8.810
2023-03-27T06:17:23.457Z,8.859
2023-03-27T06:18:23.130Z,8.831
2023-03-27T06:19:23.186Z,8.815
2023-03-27T06:20:23.903Z,8.859
2023-03-27T06:21:24.667Z,8.821
2023-03-27T06:22:24.168Z,8.826
2023-03-27T06:23:24.591Z,8.840
2023-03-27T06:24:23.984Z,8.879
2023-03-27T06:25:25.032Z,8.920
2023-03-27T06:26:24.234Z,8.944
2023-03-27T06:27:23.814Z,8.949
2023-03-27T06:28:22.757Z,8.986
2023-03-27T06:29:23.317Z,9.027
2023-03-27T06:30:23.974Z,9.045
2023-03-27T06:31:22.875Z,9.095
2023-03-27T06:32:23.384Z,9.126
2023-03-27T06:33:22.702Z,9.177
2023-03-27T06:34:23.603Z,9.255
2023-03-27T06:35:23.271Z,9.234
2023-03-27T06:36:23.418Z,9.274
2023-03-27T06:37:23.025Z,9.289
2023-03-27T06:38:23.668Z,9.345
2023-03-27T06:39:23.553Z,9.388
2023-03-27T06:40:23.952Z,9.435
2023-03-27T06:41:24.023Z,9.414
2023-03-27T06:42:23.531Z,9.435
2023-03-27T06:43:23.216Z,9.475
2023-03-27T06:44:24.047Z,9.489
2023-03-27T06:45:23.767Z,9.529
2023-03-27T06:46:27.549Z,9.560
2023-03-27T06:47:23.581Z,9.534
2023-03-27T06:48:23.651Z,9.534
2023-03-27T06:49:23.762Z,9.545
2023-03-27T06:50:22.955Z,9.510
2023-03-27T06:51:24.036Z,9.489
2023-03-27T06:52:24.036Z,9.460
2023-03-27T06:53:27.904Z,9.449
2023-03-27T06:54:24.198Z,9.444
2023-03-27T06:55:23.997Z,9.470
2023-03-27T06:56:24.007Z,9.460
2023-03-27T06:57:23.753Z,9.414
2023-03-27T06:58:23.373Z,9.388
2023-03-27T06:59:23.835Z,9.333
2023-03-27T07:00:25.069Z,9.300
2023-03-27T07:01:23.937Z,9.279
2023-03-27T07:02:23.744Z,9.255
2023-03-27T07:03:23.686Z,9.199
2023-03-27T07:04:24.065Z,9.189
2023-03-27T07:05:23.846Z,9.194
2023-03-27T07:06:23.177Z,9.199
2023-03-27T07:07:24.008Z,9.184
2023-03-27T07:08:25.249Z,9.210
2023-03-27T07:09:23.932Z,9.204
2023-03-27T07:10:23.668Z,9.220
2023-03-27T07:11:23.626Z,9.260
2023-03-27T07:12:23.395Z,9.284
2023-03-27T07:13:23.961Z,9.315
2023-03-27T07:14:23.994Z,9.310
2023-03-27T07:15:24.380Z,9.310
2023-03-27T07:16:23.605Z,9.328
2023-03-27T07:17:23.488Z,9.345
2023-03-27T07:18:23.276Z,9.379
2023-03-27T07:19:23.418Z,9.388
2023-03-27T07:20:23.931Z,9.404
2023-03-27T07:21:23.896Z,9.385
2023-03-27T07:22:23.537Z,9.354
2023-03-27T07:23:24.094Z,9.368
2023-03-27T07:24:23.849Z,9.409
2023-03-27T07:25:23.578Z,9.420
2023-03-27T07:26:23.968Z,9.414
2023-03-27T07:27:37.180Z,9.465
2023-03-27T07:28:23.426Z,9.569
2023-03-27T07:29:23.852Z,9.664
2023-03-27T07:30:23.572Z,9.734
2023-03-27T07:32:36.258Z,9.866
2023-03-27T07:33:24.205Z,9.885
2023-03-27T07:34:23.462Z,9.883
2023-03-27T07:35:23.724Z,9.939
2023-03-27T07:36:22.927Z,9.961
2023-03-27T07:37:23.883Z,9.975
2023-03-27T07:38:22.903Z,10.00
2023-03-27T07:39:23.659Z,10.08
2023-03-27T07:40:29.381Z,10.19
2023-03-27T07:41:23.737Z,10.27
2023-03-27T07:42:23.548Z,10.39
2023-03-27T07:43:24.051Z,10.47
2023-03-27T07:44:24.110Z,10.51
2023-03-27T07:45:24.317Z,10.57
2023-03-27T07:46:23.456Z,10.57
2023-03-27T07:47:24.004Z,10.65
2023-03-27T07:48:23.353Z,10.72
2023-03-27T07:49:39.335Z,10.80
2023-03-27T07:50:24.515Z,10.77
2023-03-27T07:51:23.569Z,10.81
2023-03-27T07:52:23.835Z,10.85
2023-03-27T07:53:33.563Z,10.83
2023-03-27T07:54:24.016Z,10.90
2023-03-27T07:55:23.745Z,10.94
2023-03-27T07:56:23.703Z,10.97
2023-03-27T07:57:23.344Z,10.96
2023-03-27T07:58:23.932Z,10.96
2023-03-27T07:59:23.667Z,10.93
2023-03-27T08:00:24.192Z,10.90
2023-03-27T08:01:23.863Z,10.86
2023-03-27T08:02:23.796Z,10.83
2023-03-27T08:03:23.513Z,10.79
2023-03-27T08:04:23.871Z,10.78
2023-03-27T08:05:24.284Z,10.81
2023-03-27T08:06:23.965Z,10.93
2023-03-27T08:07:22.989Z,10.98
2023-03-27T08:08:23.543Z,11.06
2023-03-27T08:09:23.106Z,11.23
2023-03-27T08:10:23.540Z,11.55
2023-03-27T08:11:30.735Z,11.53
2023-03-27T08:12:23.657Z,11.55
2023-03-27T08:13:23.081Z,11.52
2023-03-27T08:14:23.643Z,11.44
2023-03-27T08:15:23.538Z,11.32
2023-03-27T08:16:23.261Z,11.23
2023-03-27T08:17:23.663Z,11.22
2023-03-27T08:18:23.775Z,11.21
2023-03-27T08:19:23.731Z,11.05
2023-03-27T08:20:23.916Z,10.96
2023-03-27T08:21:23.550Z,10.95
2023-03-27T08:22:24.096Z,10.98
2023-03-27T08:23:23.898Z,10.88
2023-03-27T08:24:23.465Z,10.86
2023-03-27T08:25:23.839Z,10.94
2023-03-27T08:26:23.592Z,10.88
2023-03-27T08:27:22.849Z,10.86
2023-03-27T08:28:23.212Z,10.87
2023-03-27T08:29:23.747Z,11.03
2023-03-27T08:30:23.528Z,11.22
2023-03-27T08:31:23.365Z,11.25
2023-03-27T08:32:23.247Z,11.35
2023-03-27T08:33:22.985Z,11.45
2023-03-27T08:34:23.657Z,11.52
2023-03-27T08:35:23.077Z,11.55
2023-03-27T08:36:23.417Z,11.56
2023-03-27T08:37:24.182Z,11.55
2023-03-27T08:38:26.937Z,11.61
2023-03-27T08:39:23.682Z,11.65
2023-03-27T08:40:23.535Z,11.66
2023-03-27T08:41:23.110Z,11.72
2023-03-27T08:42:23.372Z,11.71
2023-03-27T08:43:23.532Z,11.72
2023-03-27T08:44:23.164Z,11.72
2023-03-27T08:45:23.921Z,11.77
2023-03-27T08:46:23.698Z,11.84
2023-03-27T08:47:23.136Z,11.78
2023-03-27T08:48:23.284Z,11.79
2023-03-27T08:49:22.999Z,11.82
2023-03-27T08:50:23.212Z,11.93
2023-03-27T08:51:23.219Z,11.93
2023-03-27T08:52:23.209Z,11.90
2023-03-27T08:53:23.684Z,11.89
2023-03-27T08:54:23.522Z,11.98
2023-03-27T08:55:23.457Z,12.01
2023-03-27T08:56:23.585Z,12.01
2023-03-27T08:57:23.929Z,12.08
2023-03-27T08:58:23.429Z,12.14
2023-03-27T08:59:23.056Z,12.19
2023-03-27T09:00:24.137Z,12.30
2023-03-27T09:01:23.819Z,12.34
2023-03-27T09:02:23.622Z,12.19
2023-03-27T09:03:23.281Z,12.22
2023-03-27T09:04:23.177Z,12.22
2023-03-27T09:05:23.686Z,12.27
2023-03-27T09:06:23.480Z,12.38
2023-03-27T09:07:23.169Z,12.35
2023-03-27T09:08:22.771Z,12.28
2023-03-27T09:09:23.447Z,12.36
2023-03-27T09:10:23.363Z,12.28
2023-03-27T09:11:23.411Z,12.24
2023-03-27T09:12:23.353Z,12.16
2023-03-27T09:13:23.245Z,12.13
2023-03-27T09:14:23.613Z,12.15
2023-03-27T09:15:23.777Z,12.21
2023-03-27T09:16:22.808Z,12.12
2023-03-27T09:17:23.691Z,12.06
2023-03-27T09:18:23.321Z,12.00
2023-03-27T09:19:23.720Z,11.93
2023-03-27T09:20:23.766Z,11.90
2023-03-27T09:21:23.452Z,11.89
2023-03-27T09:22:23.283Z,11.87
2023-03-27T09:23:23.006Z,11.86
2023-03-27T09:24:23.659Z,11.87
2023-03-27T09:25:23.878Z,11.96
2023-03-27T09:26:28.397Z,12.00
2023-03-27T09:27:23.771Z,12.06
2023-03-27T09:28:28.018Z,12.08
2023-03-27T09:29:23.508Z,12.23
2023-03-27T09:30:28.502Z,12.32
2023-03-27T09:31:23.493Z,12.43
2023-03-27T09:32:33.289Z,12.52
2023-03-27T09:33:23.623Z,12.56
2023-03-27T09:34:23.350Z,12.67
2023-03-27T09:35:23.591Z,12.68
2023-03-27T09:36:23.638Z,12.71
2023-03-27T09:37:23.175Z,12.80
2023-03-27T09:38:23.390Z,12.84
2023-03-27T09:39:22.895Z,12.87
2023-03-27T09:40:23.521Z,12.92
2023-03-27T09:41:23.625Z,12.93
2023-03-27T09:42:23.463Z,12.92
2023-03-27T09:43:24.395Z,13.02
2023-03-27T09:44:23.796Z,13.07
2023-03-27T09:45:23.404Z,13.09
2023-03-27T09:46:37.127Z,13.07
2023-03-27T09:47:24.247Z,13.06
2023-03-27T09:48:23.757Z,13.02
2023-03-27T09:49:23.483Z,13.02
2023-03-27T09:50:24.529Z,13.07
2023-03-27T09:51:23.572Z,13.04
2023-03-27T09:52:23.728Z,13.00
2023-03-27T09:53:23.384Z,13.02
2023-03-27T09:54:23.422Z,13.05
2023-03-27T09:55:23.771Z,12.98
2023-03-27T09:56:23.790Z,12.92
2023-03-27T09:57:23.436Z,12.89
2023-03-27T09:58:23.919Z,12.83
2023-03-27T09:59:24.271Z,12.77
2023-03-27T10:00:38.483Z,12.69
2023-03-27T10:01:23.573Z,12.64
2023-03-27T10:02:42.372Z,12.60
2023-03-27T10:03:23.129Z,12.62
2023-03-27T10:04:23.616Z,12.64
2023-03-27T10:05:23.350Z,12.63
2023-03-27T10:06:23.348Z,12.64
2023-03-27T10:07:23.252Z,12.67
2023-03-27T10:08:25.991Z,12.70
2023-03-27T10:09:23.867Z,12.64
2023-03-27T10:10:23.532Z,12.58
2023-03-27T10:11:22.275Z,12.52
2023-03-27T10:12:24.079Z,12.48
2023-03-27T10:13:24.043Z,12.47
2023-03-27T10:14:23.047Z,12.52
2023-03-27T10:15:23.738Z,12.57
2023-03-27T10:16:23.250Z,12.66
2023-03-27T10:17:23.200Z,12.70
2023-03-27T10:18:23.205Z,12.73
2023-03-27T10:19:24.149Z,12.80
2023-03-27T10:20:24.650Z,12.84
2023-03-27T10:21:23.810Z,12.92
2023-03-27T10:22:23.545Z,13.08
2023-03-27T10:23:23.404Z,13.02
2023-03-27T10:24:23.467Z,13.07
2023-03-27T10:25:23.512Z,13.10
2023-03-27T10:26:23.841Z,13.12
2023-03-27T10:27:23.528Z,13.07
2023-03-27T10:28:24.397Z,13.06
2023-03-27T10:29:23.955Z,13.02
2023-03-27T10:30:24.348Z,13.02
2023-03-27T10:31:23.428Z,13.02
2023-03-27T10:32:23.482Z,12.95
2023-03-27T10:33:23.661Z,12.94
2023-03-27T10:34:24.443Z,12.96
2023-03-27T10:35:23.888Z,13
2023-03-27T10:36:23.746Z,13.02
2023-03-27T10:37:23.880Z,13.07
2023-03-27T10:38:23.570Z,13.18
2023-03-27T10:39:23.254Z,13.19
2023-03-27T10:40:23.731Z,13.19
2023-03-27T10:41:28.847Z,13.25
2023-03-27T10:42:23.526Z,13.33
2023-03-27T10:43:22.613Z,13.42
2023-03-27T10:44:23.336Z,13.52
2023-03-27T10:45:23.899Z,13.77
2023-03-27T10:46:24.305Z,13.84
2023-03-27T10:47:24.072Z,13.93
2023-03-27T10:48:23.697Z,13.83
2023-03-27T10:49:23.745Z,13.81
2023-03-27T10:50:23.671Z,13.84
2023-03-27T10:51:24.902Z,13.74
2023-03-27T10:52:24.001Z,13.87
2023-03-27T10:53:23.916Z,13.82
2023-03-27T10:54:24.192Z,13.73
2023-03-27T10:55:24.392Z,13.72
2023-03-27T10:56:23.855Z,13.66
2023-03-27T10:57:24.263Z,13.56
2023-03-27T10:58:23.798Z,13.53
2023-03-27T10:59:34.547Z,13.42
2023-03-27T11:00:24.857Z,13.29
2023-03-27T11:01:24.202Z,13.19
2023-03-27T11:02:23.295Z,13.10
2023-03-27T11:03:23.520Z,13.07
2023-03-27T11:04:23.484Z,13.21
2023-03-27T11:05:24.912Z,13.32
2023-03-27T11:06:26.524Z,13.32
2023-03-27T11:07:23.420Z,13.25
2023-03-27T11:08:23.501Z,13.22
2023-03-27T11:09:24.424Z,13.20
2023-03-27T11:10:23.841Z,13.20
2023-03-27T11:11:23.606Z,13.21
2023-03-27T11:12:23.724Z,13.35
2023-03-27T11:13:24.162Z,13.40
2023-03-27T11:14:24.236Z,13.52
2023-03-27T11:15:24.564Z,13.56
2023-03-27T11:16:23.861Z,13.63
2023-03-27T11:17:24.492Z,13.71
2023-03-27T11:18:23.578Z,13.81
2023-03-27T11:19:23.832Z,13.87
2023-03-27T11:20:26.259Z,14.09
2023-03-27T11:21:23.926Z,14.17
2023-03-27T11:22:23.068Z,14.24
2023-03-27T11:23:23.838Z,14.13
2023-03-27T11:24:24.285Z,14.13
2023-03-27T11:25:24.455Z,14.10
2023-03-27T11:26:23.709Z,14.06
2023-03-27T11:27:23.542Z,14
2023-03-27T11:28:23.368Z,13.95
2023-03-27T11:29:24.466Z,13.90
2023-03-27T11:30:24.062Z,13.84
2023-03-27T11:31:24.514Z,13.85
2023-03-27T11:32:23.534Z,13.88
2023-03-27T11:33:23.539Z,13.89
2023-03-27T11:34:28.942Z,13.96
2023-03-27T11:35:23.629Z,14.08
2023-03-27T11:36:23.442Z,14.15
2023-03-27T11:37:23.714Z,14.28
2023-03-27T11:38:24.053Z,14.38
2023-03-27T11:39:23.743Z,14.38
2023-03-27T11:40:23.311Z,14.38
2023-03-27T11:41:23.932Z,14.49
2023-03-27T11:42:24.027Z,14.56
2023-03-27T11:43:23.952Z,14.68
2023-03-27T11:44:23.662Z,14.69
2023-03-27T11:45:23.659Z,14.72
2023-03-27T11:46:23.700Z,14.71
2023-03-27T11:47:23.843Z,14.77
2023-03-27T11:48:24.106Z,14.77
2023-03-27T11:49:23.707Z,14.77
2023-03-27T11:50:24.164Z,14.75
2023-03-27T11:51:23.633Z,14.72
2023-03-27T11:52:23.409Z,14.67
2023-03-27T11:53:28.410Z,14.67
2023-03-27T11:54:24.056Z,14.64
2023-03-27T11:55:31.290Z,14.60
2023-03-27T11:56:23.549Z,14.60
2023-03-27T11:57:23.561Z,14.77
2023-03-27T11:58:23.650Z,14.71
2023-03-27T11:59:28.726Z,14.62
2023-03-27T12:00:25.099Z,14.56
2023-03-27T12:01:24.125Z,14.67
2023-03-27T12:02:23.631Z,14.69
2023-03-27T12:03:23.891Z,14.67
2023-03-27T12:04:24.117Z,14.67
2023-03-27T12:05:32.212Z,14.75
2023-03-27T12:06:24.138Z,14.77
2023-03-27T12:07:35.390Z,14.76
2023-03-27T12:08:24.226Z,14.81
2023-03-27T12:09:23.585Z,14.87
2023-03-27T12:10:28.454Z,14.89
2023-03-27T12:11:23.535Z,14.89
2023-03-27T12:12:23.516Z,14.84
2023-03-27T12:13:28.789Z,14.92
2023-03-27T12:14:28.136Z,15.00
2023-03-27T12:15:24.332Z,15.12
2023-03-27T12:16:24.199Z,15.15
2023-03-27T12:17:23.350Z,15.17
2023-03-27T12:18:32.290Z,15.14
2023-03-27T12:20:24.738Z,14.97
2023-03-27T12:21:37.278Z,14.85
2023-03-27T12:22:24.538Z,14.80
2023-03-27T12:23:22.954Z,14.77
2023-03-27T12:24:24.336Z,14.77
2023-03-27T12:25:23.590Z,14.78
2023-03-27T12:26:23.583Z,14.80
2023-03-27T12:27:23.694Z,14.77
2023-03-27T12:28:23.915Z,14.78
2023-03-27T12:29:24.458Z,14.78
2023-03-27T12:30:24.146Z,14.79
2023-03-27T12:31:23.833Z,14.80
2023-03-27T12:32:23.703Z,14.83
2023-03-27T12:33:23.295Z,14.85
2023-03-27T12:34:24.433Z,14.88
2023-03-27T12:35:25.754Z,14.99
2023-03-27T12:36:26.209Z,15.02
2023-03-27T12:37:27.466Z,14.99
2023-03-27T12:38:26.668Z,14.94
2023-03-27T12:39:25.988Z,14.96
2023-03-27T12:40:26.742Z,14.96
2023-03-27T12:41:44.545Z,14.94
2023-03-27T12:42:26.105Z,14.96
2023-03-27T12:43:25.129Z,14.98
2023-03-27T12:44:25.556Z,14.98
2023-03-27T12:45:25.925Z,15.04
2023-03-27T12:46:25.526Z,15.02
2023-03-27T12:47:25.233Z,15.01
2023-03-27T12:48:25.836Z,15.03
2023-03-27T12:49:34.215Z,15
2023-03-27T12:50:25.946Z,15
2023-03-27T12:51:25.837Z,14.94
2023-03-27T12:52:26.556Z,14.93
2023-03-27T12:53:26.066Z,15.12
2023-03-27T12:54:25.275Z,14.97
2023-03-27T12:55:25.456Z,14.82
2023-03-27T12:56:26.838Z,14.77
2023-03-27T12:57:25.794Z,14.76
2023-03-27T12:58:25.504Z,14.82